Flight Track Log - Related Links

Times and Time Zones

All times are in EDT time to prevent confusion due to time zone crossing. See the BMJ70 flight status page for this flight to view local times or setup timezone preferences in your user account.

Time Position Orientation Groundspeed Altitude Reporting Facility
EDT Latitude Longitude Course Direction KTS MPH feet Rate Location/Type
Wed 09:26:47 AM 47.3419 -93.4883 North 132 152 4,700  Level Minneapolis Center
Wed 09:28:01 AM 47.3806 -93.4831 North 135 155 5,700 485 Climbing Minneapolis Center
Wed 09:29:03 AM 47.4344 -93.4719 North 152 175 5,800 48 Climbing Minneapolis Center
Wed 09:30:05 AM 47.4850 -93.4692 North 170 196 5,800 -48 Level Minneapolis Center
Wed 09:31:07 AM 47.5353 -93.4556 10° North 178 205 5,700  Descending Minneapolis Center
Wed 09:32:09 AM 47.5853 -93.4350 15° North 183 211 5,800  Climbing Minneapolis Center
Wed 09:33:11 AM 47.6353 -93.4397 356° North 181 208 5,700 -48 Descending Minneapolis Center
Wed 09:34:13 AM 47.6942 -93.4497 353° North 179 206 5,700 48 Level Minneapolis Center
Wed 09:35:15 AM 47.7419 -93.4603 352° North 177 204 5,800  Climbing Minneapolis Center
Wed 09:36:17 AM 47.7917 -93.4594 North 177 204 5,700  Descending Minneapolis Center
Wed 09:37:19 AM 47.8425 -93.4547 North 179 206 5,800  Climbing Minneapolis Center
Wed 09:38:21 AM 47.8828 -93.4444 10° North 181 208 5,700 -48 Descending Minneapolis Center
Wed 09:39:23 AM 47.9436 -93.4322 North 182 209 5,700  Level Minneapolis Center
Wed 09:40:26 AM 48.0025 -93.4269 North 180 207 5,700 48 Level Minneapolis Center
Wed 09:41:28 AM 48.0519 -93.4272 360° North 179 206 5,800 195 Climbing Minneapolis Center
Wed 09:42:29 AM 48.0903 -93.4225 North 177 204 6,100 97 Climbing Minneapolis Center
Wed 09:43:32 AM 48.1483 -93.4033 12° North 176 203 6,000  Descending Minneapolis Center
Wed 09:44:34 AM 48.1969 -93.3947 North 176 203 6,100  Climbing Minneapolis Center
Wed 09:45:36 AM 48.2436 -93.3944 360° North 173 199 6,000 -339 Descending Minneapolis Center
Wed 09:46:38 AM 48.3017 -93.3975 358° North 173 199 5,400 -726 Descending Minneapolis Center
Wed 09:47:40 AM 48.3556 -93.3933 North 182 209 4,500 -1,016 Descending Minneapolis Center
Wed 09:48:42 AM 48.4122 -93.3828 North 193 222 3,300 -919 Descending Minneapolis Center
Wed 09:49:44 AM 48.4667 -93.3803 North 197 227 2,600 -435 Descending Minneapolis Center
Wed 09:50:46 AM 48.5194 -93.3767 North 196 226 2,400 -194 Descending Minneapolis Center
Wed 09:52:00 AM 48.5500 -93.4000 North  Level FlightAware Approximate

Login

Don't have an account? Register now (free) for customized features, flight alerts, and more!